Ship Status Report: callsign WUU9657

sailwx.info

Track history (hours):
 
Tides and Currents Weather Stations Pressure Air Temp Water Temp Dewpoint Dewpoint Depression Visibility Wind Speed Wind Dir Waves Ship Positions

Callsign WUU9657 (name unknown)

Owner: INLAND MARINE SERVICE INC, HEBRON, KY. More information available from US FCC via Universal Licensing System and Coast Guard Vessel Documentation Center.

Last reported at 2017-Nov-16 18:20 UTC. Time now 2017-Dec-17 17:25 UTC.
Position N 32°40' W 091°07'.
Warning: this ship's position is 30 days out of date.

Length 39 m; draft 2.7 m.

Type: Towing. MMSI: 367060370.

Date/timePositionNaut miles runAvg speedWind from/ knotsBaromVisibWave heightAir tempDewpointWater temp
2017-Nov-16 18:20N 32°40' W 091°07'2 4.8
2017-Nov-16 17:59N 32°39' W 091°08'2 4.4
2017-Nov-16 17:30N 32°37' W 091°09'2 4.4
2017-Nov-16 17:00N 32°35' W 091°08'2 4.3
2017-Nov-16 16:30N 32°34' W 091°06'2 4.7
2017-Nov-16 16:00N 32°32' W 091°06'2 5.0
2017-Nov-16 15:30N 32°29' W 091°07'2 4.8
2017-Nov-16 15:00N 32°27' W 091°05'3 5.2
2017-Nov-16 14:30N 32°26' W 091°02'2 5.0
2017-Nov-16 14:00N 32°25' W 090°60'2 4.1
2017-Nov-16 13:30N 32°23' W 090°60'2 4.0
2017-Nov-16 13:00N 32°21' W 090°59'3 5.1
2017-Nov-16 12:30N 32°21' W 090°56'2 4.4
2017-Nov-16 12:00N 32°19' W 090°54'1 3.0
2017-Nov-16 11:30N 32°18' W 090°55'0 0.0
2017-Nov-16 11:00N 32°18' W 090°55'0 0.0
2017-Nov-16 10:30N 32°18' W 090°55'0 0.3
2017-Nov-16 10:00N 32°18' W 090°55'0 0.0
2017-Nov-16 09:30N 32°18' W 090°55'0 0.0
2017-Nov-16 09:00N 32°18' W 090°55'1 1.8
2017-Nov-16 08:30N 32°17' W 090°56'2 4.8
2017-Nov-16 08:00N 32°16' W 090°58'2 4.4
2017-Nov-16 07:30N 32°14' W 090°59'2 4.8
2017-Nov-16 07:00N 32°12' W 090°60'2 4.9
2017-Nov-16 06:30N 32°09' W 091°00'2 4.3
2017-Nov-16 06:00N 32°07' W 091°01'2 3.4
2017-Nov-16 05:30N 32°08' W 091°03'2 4.8
2017-Nov-16 05:00N 32°08' W 091°06'5 2.0
2017-Nov-16 02:40N 32°04' W 091°03'1 5.4
2017-Nov-16 02:30N 32°03' W 091°04'3 5.3
2017-Nov-16 02:00N 32°00' W 091°05'3 4.8
2017-Nov-16 01:16N 31°59' W 091°09'2 5.1
2017-Nov-16 00:58N 31°59' W 091°10'  
2017-Nov-12 05:46N 30°03' W 090°39'118 4.4
2017-Nov-11 02:59N 31°58' W 091°11'5 7.3
2017-Nov-11 02:17N 31°59' W 091°06'2 8.1
2017-Nov-11 02:00N 32°01' W 091°04'4 6.9
2017-Nov-11 01:26N 32°05' W 091°05'3 6.6
2017-Nov-11 01:00N 32°08' W 091°06'4 7.4
2017-Nov-11 00:30N 32°07' W 091°02'4 7.0
2017-Nov-11 00:00N 32°10' W 091°00'4 7.1
2017-Nov-10 23:30N 32°14' W 090°59'4 7.3
2017-Nov-10 23:00N 32°17' W 090°57'3 6.4
2017-Nov-10 22:30N 32°19' W 090°54'3 5.6
2017-Nov-10 22:00N 32°21' W 090°57'3 6.3
2017-Nov-10 21:30N 32°22' W 091°00'4 7.2
2017-Nov-10 21:00N 32°25' W 091°00'4 7.4
2017-Nov-10 20:30N 32°27' W 091°04'4 7.1
2017-Nov-10 20:00N 32°29' W 091°07'4 8.0
2017-Nov-10 19:30N 32°33' W 091°06'4 7.5
2017-Nov-10 18:58N 32°36' W 091°09'4 7.7
2017-Nov-10 18:30N 32°40' W 091°08'  
Track history (hours):
 
Tides and Currents Weather Stations Pressure Air Temp Water Temp Dewpoint Dewpoint Depression Visibility Wind Speed Wind Dir Waves Ship Positions

Callsign WUU9657 (name unknown)

Owner: INLAND MARINE SERVICE INC, HEBRON, KY. More information available from US FCC via Universal Licensing System and Coast Guard Vessel Documentation Center.

Last reported at 2017-Nov-16 18:20 UTC. Time now 2017-Dec-17 17:25 UTC.
Position N 32°40' W 091°07'.
Warning: this ship's position is 30 days out of date.

Length 39 m; draft 2.7 m.

Type: Towing. MMSI: 367060370.

Date/timePositionNaut miles runAvg speedWind from/ knotsBaromVisibWave heightAir tempDewpointWater temp
2017-Nov-16 18:20N 32°40' W 091°07'2 4.8
2017-Nov-16 17:59N 32°39' W 091°08'2 4.4
2017-Nov-16 17:30N 32°37' W 091°09'2 4.4
2017-Nov-16 17:00N 32°35' W 091°08'2 4.3
2017-Nov-16 16:30N 32°34' W 091°06'2 4.7
2017-Nov-16 16:00N 32°32' W 091°06'2 5.0
2017-Nov-16 15:30N 32°29' W 091°07'2 4.8
2017-Nov-16 15:00N 32°27' W 091°05'3 5.2
2017-Nov-16 14:30N 32°26' W 091°02'2 5.0
2017-Nov-16 14:00N 32°25' W 090°60'2 4.1
2017-Nov-16 13:30N 32°23' W 090°60'2 4.0
2017-Nov-16 13:00N 32°21' W 090°59'3 5.1
2017-Nov-16 12:30N 32°21' W 090°56'2 4.4
2017-Nov-16 12:00N 32°19' W 090°54'1 3.0
2017-Nov-16 11:30N 32°18' W 090°55'0 0.0
2017-Nov-16 11:00N 32°18' W 090°55'0 0.0
2017-Nov-16 10:30N 32°18' W 090°55'0 0.3
2017-Nov-16 10:00N 32°18' W 090°55'0 0.0
2017-Nov-16 09:30N 32°18' W 090°55'0 0.0
2017-Nov-16 09:00N 32°18' W 090°55'1 1.8
2017-Nov-16 08:30N 32°17' W 090°56'2 4.8
2017-Nov-16 08:00N 32°16' W 090°58'2 4.4
2017-Nov-16 07:30N 32°14' W 090°59'2 4.8
2017-Nov-16 07:00N 32°12' W 090°60'2 4.9
2017-Nov-16 06:30N 32°09' W 091°00'2 4.3
2017-Nov-16 06:00N 32°07' W 091°01'2 3.4
2017-Nov-16 05:30N 32°08' W 091°03'2 4.8
2017-Nov-16 05:00N 32°08' W 091°06'5 2.0
2017-Nov-16 02:40N 32°04' W 091°03'1 5.4
2017-Nov-16 02:30N 32°03' W 091°04'3 5.3
2017-Nov-16 02:00N 32°00' W 091°05'3 4.8
2017-Nov-16 01:16N 31°59' W 091°09'2 5.1
2017-Nov-16 00:58N 31°59' W 091°10'  
2017-Nov-12 05:46N 30°03' W 090°39'118 4.4
2017-Nov-11 02:59N 31°58' W 091°11'5 7.3
2017-Nov-11 02:17N 31°59' W 091°06'2 8.1
2017-Nov-11 02:00N 32°01' W 091°04'4 6.9
2017-Nov-11 01:26N 32°05' W 091°05'3 6.6
2017-Nov-11 01:00N 32°08' W 091°06'4 7.4
2017-Nov-11 00:30N 32°07' W 091°02'4 7.0
2017-Nov-11 00:00N 32°10' W 091°00'4 7.1
2017-Nov-10 23:30N 32°14' W 090°59'4 7.3
2017-Nov-10 23:00N 32°17' W 090°57'3 6.4
2017-Nov-10 22:30N 32°19' W 090°54'3 5.6
2017-Nov-10 22:00N 32°21' W 090°57'3 6.3
2017-Nov-10 21:30N 32°22' W 091°00'4 7.2
2017-Nov-10 21:00N 32°25' W 091°00'4 7.4
2017-Nov-10 20:30N 32°27' W 091°04'4 7.1
2017-Nov-10 20:00N 32°29' W 091°07'4 8.0
2017-Nov-10 19:30N 32°33' W 091°06'4 7.5
2017-Nov-10 18:58N 32°36' W 091°09'4 7.7
2017-Nov-10 18:30N 32°40' W 091°08'  

Dump ship's entire track history